sensor_id;sensor_type;location;lat;lon;timestamp;temperature;humidity
52509;DHT22;38420;53.150;6.370;2022-10-24T00:02:05;14.40;99.90
52509;DHT22;38420;53.150;6.370;2022-10-24T00:04:35;14.80;99.90
52509;DHT22;38420;53.150;6.370;2022-10-24T00:07:01;14.60;99.90
52509;DHT22;38420;53.150;6.370;2022-10-24T00:09:27;14.50;99.90
52509;DHT22;38420;53.150;6.370;2022-10-24T00:11:52;14.90;99.90
52509;DHT22;38420;53.150;6.370;2022-10-24T00:14:18;14.80;99.90
52509;DHT22;38420;53.150;6.370;2022-10-24T00:16:44;14.80;99.90
52509;DHT22;38420;53.150;6.370;2022-10-24T00:19:09;14.90;99.90
52509;DHT22;38420;53.150;6.370;2022-10-24T00:21:35;15.00;99.90
52509;DHT22;38420;53.150;6.370;2022-10-24T00:24:00;15.00;99.90
52509;DHT22;38420;53.150;6.370;2022-10-24T00:26:26;14.50;99.90
52509;DHT22;38420;53.150;6.370;2022-10-24T00:28:51;14.80;99.90
52509;DHT22;38420;53.150;6.370;2022-10-24T00:31:19;14.90;99.90
52509;DHT22;38420;53.150;6.370;2022-10-24T00:33:44;14.90;99.90
52509;DHT22;38420;53.150;6.370;2022-10-24T00:36:19;14.60;99.90
52509;DHT22;38420;53.150;6.370;2022-10-24T00:38:45;14.80;99.90
52509;DHT22;38420;53.150;6.370;2022-10-24T00:41:20;15.00;99.90
52509;DHT22;38420;53.150;6.370;2022-10-24T00:43:46;14.40;99.90
52509;DHT22;38420;53.150;6.370;2022-10-24T00:46:12;14.40;99.90
52509;DHT22;38420;53.150;6.370;2022-10-24T00:48:43;14.90;99.90
52509;DHT22;38420;53.150;6.370;2022-10-24T00:51:20;14.90;99.90
52509;DHT22;38420;53.150;6.370;2022-10-24T00:53:58;14.60;99.90
52509;DHT22;38420;53.150;6.370;2022-10-24T00:56:31;14.50;99.90
52509;DHT22;38420;53.150;6.370;2022-10-24T00:59:00;15.10;99.90
52509;DHT22;38420;53.150;6.370;2022-10-24T01:01:27;14.90;99.90
52509;DHT22;38420;53.150;6.370;2022-10-24T01:03:52;14.50;99.90
52509;DHT22;38420;53.150;6.370;2022-10-24T01:06:43;14.90;99.90
52509;DHT22;38420;53.150;6.370;2022-10-24T01:25:54;14.40;99.90
52509;DHT22;38420;53.150;6.370;2022-10-24T01:28:47;14.40;99.90
52509;DHT22;38420;53.150;6.370;2022-10-24T01:31:44;14.90;99.90
52509;DHT22;38420;53.150;6.370;2022-10-24T01:37:08;14.60;99.90
52509;DHT22;38420;53.150;6.370;2022-10-24T01:39:41;15.00;99.90
52509;DHT22;38420;53.150;6.370;2022-10-24T01:42:09;14.70;99.90
52509;DHT22;38420;53.150;6.370;2022-10-24T01:44:40;15.10;99.90
52509;DHT22;38420;53.150;6.370;2022-10-24T01:47:16;15.20;99.90
52509;DHT22;38420;53.150;6.370;2022-10-24T01:49:57;14.80;99.90
52509;DHT22;38420;53.150;6.370;2022-10-24T01:52:28;15.00;99.90
52509;DHT22;38420;53.150;6.370;2022-10-24T01:54:55;14.80;99.90
52509;DHT22;38420;53.150;6.370;2022-10-24T01:57:28;15.30;99.90
52509;DHT22;38420;53.150;6.370;2022-10-24T01:59:54;15.00;99.90
52509;DHT22;38420;53.150;6.370;2022-10-24T02:02:27;14.80;99.90
52509;DHT22;38420;53.150;6.370;2022-10-24T02:05:01;15.30;99.90
52509;DHT22;38420;53.150;6.370;2022-10-24T02:07:30;15.20;99.90
52509;DHT22;38420;53.150;6.370;2022-10-24T02:10:06;14.80;99.90
52509;DHT22;38420;53.150;6.370;2022-10-24T02:12:37;14.80;99.90
52509;DHT22;38420;53.150;6.370;2022-10-24T02:15:12;15.40;99.90
52509;DHT22;38420;53.150;6.370;2022-10-24T02:17:38;15.50;99.90
52509;DHT22;38420;53.150;6.370;2022-10-24T02:20:04;15.10;99.90
52509;DHT22;38420;53.150;6.370;2022-10-24T02:22:58;15.50;99.90
52509;DHT22;38420;53.150;6.370;2022-10-24T02:25:34;15.30;99.90
52509;DHT22;38420;53.150;6.370;2022-10-24T02:28:15;15.20;99.90
52509;DHT22;38420;53.150;6.370;2022-10-24T02:30:47;15.30;99.90
52509;DHT22;38420;53.150;6.370;2022-10-24T02:33:15;15.50;99.90
52509;DHT22;38420;53.150;6.370;2022-10-24T02:35:41;15.50;99.90
52509;DHT22;38420;53.150;6.370;2022-10-24T02:38:17;15.00;99.90
52509;DHT22;38420;53.150;6.370;2022-10-24T02:40:46;15.10;99.90
52509;DHT22;38420;53.150;6.370;2022-10-24T02:43:13;15.00;99.90
52509;DHT22;38420;53.150;6.370;2022-10-24T02:45:39;15.50;99.90
52509;DHT22;38420;53.150;6.370;2022-10-24T02:48:09;15.50;99.90
52509;DHT22;38420;53.150;6.370;2022-10-24T02:50:36;15.00;99.90
52509;DHT22;38420;53.150;6.370;2022-10-24T02:53:03;15.50;99.90
52509;DHT22;38420;53.150;6.370;2022-10-24T02:55:29;14.90;99.90
52509;DHT22;38420;53.150;6.370;2022-10-24T02:57:55;15.40;99.90
52509;DHT22;38420;53.150;6.370;2022-10-24T03:00:20;15.40;99.90
52509;DHT22;38420;53.150;6.370;2022-10-24T03:02:47;15.00;99.90
52509;DHT22;38420;53.150;6.370;2022-10-24T03:05:12;15.00;99.90
52509;DHT22;38420;53.150;6.370;2022-10-24T03:07:38;15.10;99.90
52509;DHT22;38420;53.150;6.370;2022-10-24T03:10:04;14.90;99.90
52509;DHT22;38420;53.150;6.370;2022-10-24T03:12:29;15.40;99.90
52509;DHT22;38420;53.150;6.370;2022-10-24T03:14:55;15.00;99.90
52509;DHT22;38420;53.150;6.370;2022-10-24T03:17:20;15.00;99.90
52509;DHT22;38420;53.150;6.370;2022-10-24T03:19:47;15.00;99.90
52509;DHT22;38420;53.150;6.370;2022-10-24T03:22:13;15.40;99.90
52509;DHT22;38420;53.150;6.370;2022-10-24T03:24:38;15.40;99.90
52509;DHT22;38420;53.150;6.370;2022-10-24T03:27:04;15.40;99.90
52509;DHT22;38420;53.150;6.370;2022-10-24T03:29:30;15.40;99.90
52509;DHT22;38420;53.150;6.370;2022-10-24T03:31:55;15.10;99.90
52509;DHT22;38420;53.150;6.370;2022-10-24T03:34:21;15.00;99.90
52509;DHT22;38420;53.150;6.370;2022-10-24T03:36:46;15.40;99.90
52509;DHT22;38420;53.150;6.370;2022-10-24T03:39:12;15.40;99.90
52509;DHT22;38420;53.150;6.370;2022-10-24T03:41:37;15.30;99.90
52509;DHT22;38420;53.150;6.370;2022-10-24T03:44:03;15.10;99.90
52509;DHT22;38420;53.150;6.370;2022-10-24T03:46:29;15.50;99.90
52509;DHT22;38420;53.150;6.370;2022-10-24T03:48:54;15.20;99.90
52509;DHT22;38420;53.150;6.370;2022-10-24T03:51:20;15.30;99.90
52509;DHT22;38420;53.150;6.370;2022-10-24T03:53:45;15.60;99.90
52509;DHT22;38420;53.150;6.370;2022-10-24T03:56:11;15.40;99.90
52509;DHT22;38420;53.150;6.370;2022-10-24T03:58:37;15.60;99.90
52509;DHT22;38420;53.150;6.370;2022-10-24T04:01:02;15.60;99.90
52509;DHT22;38420;53.150;6.370;2022-10-24T04:03:28;15.70;99.90
52509;DHT22;38420;53.150;6.370;2022-10-24T04:05:54;15.70;99.90
52509;DHT22;38420;53.150;6.370;2022-10-24T04:08:20;15.40;99.90
52509;DHT22;38420;53.150;6.370;2022-10-24T04:10:47;15.60;99.90
52509;DHT22;38420;53.150;6.370;2022-10-24T04:13:12;15.50;99.90
52509;DHT22;38420;53.150;6.370;2022-10-24T04:15:38;15.50;99.90
52509;DHT22;38420;53.150;6.370;2022-10-24T04:18:04;15.50;99.90
52509;DHT22;38420;53.150;6.370;2022-10-24T04:20:29;15.30;99.90
52509;DHT22;38420;53.150;6.370;2022-10-24T04:22:55;15.20;99.90
52509;DHT22;38420;53.150;6.370;2022-10-24T04:25:20;15.40;99.90
52509;DHT22;38420;53.150;6.370;2022-10-24T04:27:46;15.20;99.90
52509;DHT22;38420;53.150;6.370;2022-10-24T04:30:13;15.10;99.90
52509;DHT22;38420;53.150;6.370;2022-10-24T04:32:38;15.20;99.90
52509;DHT22;38420;53.150;6.370;2022-10-24T04:35:05;15.30;99.90
52509;DHT22;38420;53.150;6.370;2022-10-24T04:37:31;15.20;99.90
52509;DHT22;38420;53.150;6.370;2022-10-24T04:39:56;15.20;99.90
52509;DHT22;38420;53.150;6.370;2022-10-24T04:42:23;15.20;99.90
52509;DHT22;38420;53.150;6.370;2022-10-24T04:44:49;15.20;99.90
52509;DHT22;38420;53.150;6.370;2022-10-24T04:47:15;15.10;99.90
52509;DHT22;38420;53.150;6.370;2022-10-24T04:49:40;15.20;99.90
52509;DHT22;38420;53.150;6.370;2022-10-24T04:52:06;14.90;99.90
52509;DHT22;38420;53.150;6.370;2022-10-24T04:54:32;14.90;99.90
52509;DHT22;38420;53.150;6.370;2022-10-24T04:56:57;15.10;99.90
52509;DHT22;38420;53.150;6.370;2022-10-24T04:59:23;14.90;99.90
52509;DHT22;38420;53.150;6.370;2022-10-24T05:01:49;14.80;99.90
52509;DHT22;38420;53.150;6.370;2022-10-24T05:04:14;15.00;99.90
52509;DHT22;38420;53.150;6.370;2022-10-24T05:06:40;14.90;99.90
52509;DHT22;38420;53.150;6.370;2022-10-24T05:09:05;15.00;99.90
52509;DHT22;38420;53.150;6.370;2022-10-24T05:11:31;14.90;99.90
52509;DHT22;38420;53.150;6.370;2022-10-24T05:13:57;14.80;99.90
52509;DHT22;38420;53.150;6.370;2022-10-24T05:16:23;14.90;99.90
52509;DHT22;38420;53.150;6.370;2022-10-24T05:18:48;15.00;99.90
52509;DHT22;38420;53.150;6.370;2022-10-24T05:21:14;15.00;99.90
52509;DHT22;38420;53.150;6.370;2022-10-24T05:23:40;14.80;99.90
52509;DHT22;38420;53.150;6.370;2022-10-24T05:26:06;14.80;99.90
52509;DHT22;38420;53.150;6.370;2022-10-24T05:28:32;14.70;99.90
52509;DHT22;38420;53.150;6.370;2022-10-24T05:30:57;14.80;99.90
52509;DHT22;38420;53.150;6.370;2022-10-24T05:33:23;14.80;99.90
52509;DHT22;38420;53.150;6.370;2022-10-24T05:35:50;14.90;99.90
52509;DHT22;38420;53.150;6.370;2022-10-24T05:38:16;14.60;99.90
52509;DHT22;38420;53.150;6.370;2022-10-24T05:40:42;14.90;99.90
52509;DHT22;38420;53.150;6.370;2022-10-24T05:43:07;14.60;99.90
52509;DHT22;38420;53.150;6.370;2022-10-24T05:45:33;14.80;99.90
52509;DHT22;38420;53.150;6.370;2022-10-24T05:47:59;14.90;99.90
52509;DHT22;38420;53.150;6.370;2022-10-24T05:50:25;14.80;99.90
52509;DHT22;38420;53.150;6.370;2022-10-24T05:52:52;14.70;99.90
52509;DHT22;38420;53.150;6.370;2022-10-24T05:55:17;14.80;99.90
52509;DHT22;38420;53.150;6.370;2022-10-24T05:57:43;14.90;99.90
52509;DHT22;38420;53.150;6.370;2022-10-24T06:00:12;15.00;99.90
52509;DHT22;38420;53.150;6.370;2022-10-24T06:02:39;15.00;99.90
52509;DHT22;38420;53.150;6.370;2022-10-24T06:05:06;14.80;99.90
52509;DHT22;38420;53.150;6.370;2022-10-24T06:07:31;14.80;99.90
52509;DHT22;38420;53.150;6.370;2022-10-24T06:09:57;14.80;99.90
52509;DHT22;38420;53.150;6.370;2022-10-24T06:12:23;15.00;99.90
52509;DHT22;38420;53.150;6.370;2022-10-24T06:14:49;14.90;99.90
52509;DHT22;38420;53.150;6.370;2022-10-24T06:17:14;14.70;99.90
52509;DHT22;38420;53.150;6.370;2022-10-24T06:19:40;14.70;99.90
52509;DHT22;38420;53.150;6.370;2022-10-24T06:22:07;14.80;99.90
52509;DHT22;38420;53.150;6.370;2022-10-24T06:24:34;14.80;99.90
52509;DHT22;38420;53.150;6.370;2022-10-24T06:27:00;14.90;99.90
52509;DHT22;38420;53.150;6.370;2022-10-24T06:29:26;14.80;99.90
52509;DHT22;38420;53.150;6.370;2022-10-24T06:31:51;14.70;99.90
52509;DHT22;38420;53.150;6.370;2022-10-24T06:34:17;14.70;99.90
52509;DHT22;38420;53.150;6.370;2022-10-24T06:36:43;14.80;99.90
52509;DHT22;38420;53.150;6.370;2022-10-24T06:39:08;14.70;99.90
52509;DHT22;38420;53.150;6.370;2022-10-24T06:41:34;14.70;99.90
52509;DHT22;38420;53.150;6.370;2022-10-24T06:44:01;14.80;99.90
52509;DHT22;38420;53.150;6.370;2022-10-24T06:46:27;14.80;99.90
52509;DHT22;38420;53.150;6.370;2022-10-24T06:48:54;14.90;99.90
52509;DHT22;38420;53.150;6.370;2022-10-24T06:51:20;14.80;99.90
52509;DHT22;38420;53.150;6.370;2022-10-24T06:53:45;15.00;99.90
52509;DHT22;38420;53.150;6.370;2022-10-24T06:56:14;15.10;99.90
52509;DHT22;38420;53.150;6.370;2022-10-24T06:58:40;14.90;99.90
52509;DHT22;38420;53.150;6.370;2022-10-24T07:01:17;15.10;99.90
52509;DHT22;38420;53.150;6.370;2022-10-24T07:03:43;14.90;99.90
52509;DHT22;38420;53.150;6.370;2022-10-24T07:08:45;15.00;99.90
52509;DHT22;38420;53.150;6.370;2022-10-24T07:11:11;15.20;99.90
52509;DHT22;38420;53.150;6.370;2022-10-24T07:13:37;15.00;99.90
52509;DHT22;38420;53.150;6.370;2022-10-24T07:16:04;15.40;99.90
52509;DHT22;38420;53.150;6.370;2022-10-24T07:18:30;15.20;99.90
52509;DHT22;38420;53.150;6.370;2022-10-24T07:21:07;15.10;99.90
52509;DHT22;38420;53.150;6.370;2022-10-24T07:23:33;15.20;99.90
52509;DHT22;38420;53.150;6.370;2022-10-24T07:26:10;15.20;99.90
52509;DHT22;38420;53.150;6.370;2022-10-24T07:28:37;15.30;99.90
52509;DHT22;38420;53.150;6.370;2022-10-24T07:31:03;15.20;99.90
52509;DHT22;38420;53.150;6.370;2022-10-24T07:33:30;15.40;99.90
52509;DHT22;38420;53.150;6.370;2022-10-24T07:35:56;15.50;99.90
52509;DHT22;38420;53.150;6.370;2022-10-24T07:38:21;15.50;99.90
52509;DHT22;38420;53.150;6.370;2022-10-24T07:40:47;15.60;99.90
52509;DHT22;38420;53.150;6.370;2022-10-24T07:43:13;15.70;99.90
52509;DHT22;38420;53.150;6.370;2022-10-24T07:45:39;15.70;99.90
52509;DHT22;38420;53.150;6.370;2022-10-24T07:48:05;15.70;99.90
52509;DHT22;38420;53.150;6.370;2022-10-24T07:50:32;15.90;99.90
52509;DHT22;38420;53.150;6.370;2022-10-24T07:52:58;16.60;99.90
52509;DHT22;38420;53.150;6.370;2022-10-24T07:55:24;15.90;99.90
52509;DHT22;38420;53.150;6.370;2022-10-24T07:57:50;16.00;99.90
52509;DHT22;38420;53.150;6.370;2022-10-24T08:00:16;16.00;99.90
52509;DHT22;38420;53.150;6.370;2022-10-24T08:02:41;16.00;99.90
52509;DHT22;38420;53.150;6.370;2022-10-24T08:05:09;16.00;99.90
52509;DHT22;38420;53.150;6.370;2022-10-24T08:07:36;16.00;99.90
52509;DHT22;38420;53.150;6.370;2022-10-24T08:10:03;16.00;99.90
52509;DHT22;38420;53.150;6.370;2022-10-24T08:12:29;16.00;99.90
52509;DHT22;38420;53.150;6.370;2022-10-24T08:14:54;16.20;99.90
52509;DHT22;38420;53.150;6.370;2022-10-24T08:17:20;16.10;99.90
52509;DHT22;38420;53.150;6.370;2022-10-24T08:19:48;16.10;99.90
52509;DHT22;38420;53.150;6.370;2022-10-24T08:22:14;16.10;99.90
52509;DHT22;38420;53.150;6.370;2022-10-24T08:24:42;16.20;99.90
52509;DHT22;38420;53.150;6.370;2022-10-24T08:27:08;16.30;99.90
52509;DHT22;38420;53.150;6.370;2022-10-24T08:29:34;16.10;99.90
52509;DHT22;38420;53.150;6.370;2022-10-24T08:31:59;16.20;99.90
52509;DHT22;38420;53.150;6.370;2022-10-24T08:34:25;16.20;99.90
52509;DHT22;38420;53.150;6.370;2022-10-24T08:36:51;16.20;99.90
52509;DHT22;38420;53.150;6.370;2022-10-24T08:39:17;16.40;99.90
52509;DHT22;38420;53.150;6.370;2022-10-24T08:41:50;16.20;99.90
52509;DHT22;38420;53.150;6.370;2022-10-24T08:44:28;16.30;99.90
52509;DHT22;38420;53.150;6.370;2022-10-24T08:46:59;16.40;99.90
52509;DHT22;38420;53.150;6.370;2022-10-24T08:49:45;16.20;99.90
52509;DHT22;38420;53.150;6.370;2022-10-24T08:54:48;16.30;99.90
52509;DHT22;38420;53.150;6.370;2022-10-24T08:57:41;16.30;99.90
52509;DHT22;38420;53.150;6.370;2022-10-24T09:00:22;16.50;99.90
52509;DHT22;38420;53.150;6.370;2022-10-24T09:03:01;16.50;99.90
52509;DHT22;38420;53.150;6.370;2022-10-24T09:05:34;16.50;99.90
52509;DHT22;38420;53.150;6.370;2022-10-24T09:08:09;16.50;99.90
52509;DHT22;38420;53.150;6.370;2022-10-24T09:10:54;16.30;99.90
52509;DHT22;38420;53.150;6.370;2022-10-24T09:13:21;16.00;99.90
52509;DHT22;38420;53.150;6.370;2022-10-24T09:15:48;15.90;99.90
52509;DHT22;38420;53.150;6.370;2022-10-24T09:18:22;16.30;99.90
52509;DHT22;38420;53.150;6.370;2022-10-24T09:20:49;16.70;99.90
52509;DHT22;38420;53.150;6.370;2022-10-24T09:23:16;16.60;99.90
52509;DHT22;38420;53.150;6.370;2022-10-24T09:25:52;16.40;99.90
52509;DHT22;38420;53.150;6.370;2022-10-24T09:28:19;16.40;99.90
52509;DHT22;38420;53.150;6.370;2022-10-24T09:30:45;16.50;99.90
52509;DHT22;38420;53.150;6.370;2022-10-24T09:35:49;16.80;99.90
52509;DHT22;38420;53.150;6.370;2022-10-24T09:40:54;16.70;99.90
52509;DHT22;38420;53.150;6.370;2022-10-24T09:43:25;17.00;99.90
52509;DHT22;38420;53.150;6.370;2022-10-24T09:46:06;16.80;99.90
52509;DHT22;38420;53.150;6.370;2022-10-24T09:51:04;16.70;99.90
52509;DHT22;38420;53.150;6.370;2022-10-24T09:53:37;16.80;99.90
52509;DHT22;38420;53.150;6.370;2022-10-24T09:56:12;16.80;99.90
52509;DHT22;38420;53.150;6.370;2022-10-24T09:58:39;16.70;99.90
52509;DHT22;38420;53.150;6.370;2022-10-24T10:03:38;16.50;99.90
52509;DHT22;38420;53.150;6.370;2022-10-24T10:06:15;16.60;99.90
52509;DHT22;38420;53.150;6.370;2022-10-24T10:08:49;16.50;99.90
52509;DHT22;38420;53.150;6.370;2022-10-24T10:11:15;16.40;99.90
52509;DHT22;38420;53.150;6.370;2022-10-24T10:13:49;16.40;99.90
52509;DHT22;38420;53.150;6.370;2022-10-24T10:16:33;16.50;99.90
52509;DHT22;38420;53.150;6.370;2022-10-24T10:19:05;16.60;99.90
52509;DHT22;38420;53.150;6.370;2022-10-24T10:24:41;16.40;99.90
52509;DHT22;38420;53.150;6.370;2022-10-24T10:27:27;16.40;99.90
52509;DHT22;38420;53.150;6.370;2022-10-24T10:33:19;16.20;99.90
52509;DHT22;38420;53.150;6.370;2022-10-24T10:36:09;15.90;99.90
52509;DHT22;38420;53.150;6.370;2022-10-24T10:41:40;15.50;99.90
52509;DHT22;38420;53.150;6.370;2022-10-24T10:50:01;15.10;99.90
52509;DHT22;38420;53.150;6.370;2022-10-24T10:52:32;15.10;99.90
52509;DHT22;38420;53.150;6.370;2022-10-24T11:06:41;16.20;99.90
52509;DHT22;38420;53.150;6.370;2022-10-24T11:14:42;16.30;99.90
52509;DHT22;38420;53.150;6.370;2022-10-24T11:23:33;16.30;99.90
52509;DHT22;38420;53.150;6.370;2022-10-24T11:26:06;16.30;99.90
52509;DHT22;38420;53.150;6.370;2022-10-24T11:28:45;16.30;99.90
52509;DHT22;38420;53.150;6.370;2022-10-24T11:31:22;16.20;99.90
52509;DHT22;38420;53.150;6.370;2022-10-24T11:33:59;16.10;99.90
52509;DHT22;38420;53.150;6.370;2022-10-24T11:36:34;16.20;99.90
52509;DHT22;38420;53.150;6.370;2022-10-24T11:39:32;16.10;99.90
52509;DHT22;38420;53.150;6.370;2022-10-24T11:42:29;16.20;99.90
52509;DHT22;38420;53.150;6.370;2022-10-24T11:47:38;16.20;99.90
52509;DHT22;38420;53.150;6.370;2022-10-24T11:50:13;16.30;99.90
52509;DHT22;38420;53.150;6.370;2022-10-24T11:52:45;16.20;99.90
52509;DHT22;38420;53.150;6.370;2022-10-24T11:55:27;16.10;99.90
52509;DHT22;38420;53.150;6.370;2022-10-24T11:57:57;16.00;99.90
52509;DHT22;38420;53.150;6.370;2022-10-24T12:00:28;16.00;99.90
52509;DHT22;38420;53.150;6.370;2022-10-24T12:03:23;16.20;99.90
52509;DHT22;38420;53.150;6.370;2022-10-24T12:06:08;16.20;99.90
52509;DHT22;38420;53.150;6.370;2022-10-24T12:14:26;16.20;99.90
52509;DHT22;38420;53.150;6.370;2022-10-24T12:19:34;16.60;99.90
52509;DHT22;38420;53.150;6.370;2022-10-24T12:22:04;16.60;99.90
52509;DHT22;38420;53.150;6.370;2022-10-24T12:24:35;16.70;99.90
52509;DHT22;38420;53.150;6.370;2022-10-24T12:27:20;16.60;99.90
52509;DHT22;38420;53.150;6.370;2022-10-24T12:30:23;16.60;99.90
52509;DHT22;38420;53.150;6.370;2022-10-24T12:32:57;16.60;99.90
52509;DHT22;38420;53.150;6.370;2022-10-24T12:37:55;16.60;99.90
52509;DHT22;38420;53.150;6.370;2022-10-24T12:43:27;16.40;99.90
52509;DHT22;38420;53.150;6.370;2022-10-24T12:45:54;16.50;99.90
52509;DHT22;38420;53.150;6.370;2022-10-24T12:48:28;16.50;99.90
52509;DHT22;38420;53.150;6.370;2022-10-24T12:51:29;16.70;99.90
52509;DHT22;38420;53.150;6.370;2022-10-24T13:01:48;16.70;99.90
52509;DHT22;38420;53.150;6.370;2022-10-24T13:04:36;16.80;99.90
52509;DHT22;38420;53.150;6.370;2022-10-24T13:10:13;16.80;99.90
52509;DHT22;38420;53.150;6.370;2022-10-24T13:20:47;16.60;99.90
52509;DHT22;38420;53.150;6.370;2022-10-24T13:23:22;16.40;99.90
52509;DHT22;38420;53.150;6.370;2022-10-24T13:26:00;16.50;99.90
52509;DHT22;38420;53.150;6.370;2022-10-24T13:39:03;16.20;99.90
52509;DHT22;38420;53.150;6.370;2022-10-24T13:41:41;16.10;99.90
52509;DHT22;38420;53.150;6.370;2022-10-24T13:46:49;15.90;99.90
52509;DHT22;38420;53.150;6.370;2022-10-24T13:49:32;16.00;99.90
52509;DHT22;38420;53.150;6.370;2022-10-24T13:52:06;16.00;99.90
52509;DHT22;38420;53.150;6.370;2022-10-24T13:54:33;16.30;99.90
52509;DHT22;38420;53.150;6.370;2022-10-24T13:57:01;16.10;99.90
52509;DHT22;38420;53.150;6.370;2022-10-24T14:01:58;16.20;99.90
52509;DHT22;38420;53.150;6.370;2022-10-24T14:04:25;16.20;99.90
52509;DHT22;38420;53.150;6.370;2022-10-24T14:06:52;16.40;99.90
52509;DHT22;38420;53.150;6.370;2022-10-24T14:09:23;16.30;99.90
52509;DHT22;38420;53.150;6.370;2022-10-24T14:11:49;16.40;99.90
52509;DHT22;38420;53.150;6.370;2022-10-24T14:14:31;16.30;99.90
52509;DHT22;38420;53.150;6.370;2022-10-24T14:17:23;16.30;99.90
52509;DHT22;38420;53.150;6.370;2022-10-24T14:22:37;16.10;99.90
52509;DHT22;38420;53.150;6.370;2022-10-24T14:25:24;16.20;99.90
52509;DHT22;38420;53.150;6.370;2022-10-24T14:27:52;16.00;99.90
52509;DHT22;38420;53.150;6.370;2022-10-24T14:30:21;16.10;99.90
52509;DHT22;38420;53.150;6.370;2022-10-24T14:32:48;16.10;99.90
52509;DHT22;38420;53.150;6.370;2022-10-24T14:35:14;16.10;99.90
52509;DHT22;38420;53.150;6.370;2022-10-24T14:37:40;16.10;99.90
52509;DHT22;38420;53.150;6.370;2022-10-24T14:40:25;16.00;99.90
52509;DHT22;38420;53.150;6.370;2022-10-24T14:42:51;15.80;99.90
52509;DHT22;38420;53.150;6.370;2022-10-24T14:45:27;15.80;99.90
52509;DHT22;38420;53.150;6.370;2022-10-24T14:47:54;15.90;99.90
52509;DHT22;38420;53.150;6.370;2022-10-24T14:50:41;15.80;99.90
52509;DHT22;38420;53.150;6.370;2022-10-24T14:53:25;15.70;99.90
52509;DHT22;38420;53.150;6.370;2022-10-24T14:55:56;15.60;99.90
52509;DHT22;38420;53.150;6.370;2022-10-24T14:58:26;15.80;99.90
52509;DHT22;38420;53.150;6.370;2022-10-24T15:00:53;15.70;99.90
52509;DHT22;38420;53.150;6.370;2022-10-24T15:03:19;15.60;99.90
52509;DHT22;38420;53.150;6.370;2022-10-24T15:06:09;15.40;99.90
52509;DHT22;38420;53.150;6.370;2022-10-24T15:08:39;15.40;99.90
52509;DHT22;38420;53.150;6.370;2022-10-24T15:11:20;15.30;99.90
52509;DHT22;38420;53.150;6.370;2022-10-24T15:13:51;15.50;99.90
52509;DHT22;38420;53.150;6.370;2022-10-24T15:18:52;15.20;99.90
52509;DHT22;38420;53.150;6.370;2022-10-24T15:21:21;15.20;99.90
52509;DHT22;38420;53.150;6.370;2022-10-24T15:23:51;15.20;99.90
52509;DHT22;38420;53.150;6.370;2022-10-24T15:26:39;15.10;99.90
52509;DHT22;38420;53.150;6.370;2022-10-24T15:29:25;15.30;99.90
52509;DHT22;38420;53.150;6.370;2022-10-24T15:31:53;15.20;99.90
52509;DHT22;38420;53.150;6.370;2022-10-24T15:34:21;15.40;99.90
52509;DHT22;38420;53.150;6.370;2022-10-24T15:36:49;15.20;99.90
52509;DHT22;38420;53.150;6.370;2022-10-24T15:39:17;15.00;99.90
52509;DHT22;38420;53.150;6.370;2022-10-24T15:41:43;15.10;99.90
52509;DHT22;38420;53.150;6.370;2022-10-24T15:44:18;15.00;99.90
52509;DHT22;38420;53.150;6.370;2022-10-24T15:46:46;15.10;99.90
52509;DHT22;38420;53.150;6.370;2022-10-24T15:49:12;15.00;99.90
52509;DHT22;38420;53.150;6.370;2022-10-24T15:51:39;15.20;99.90
52509;DHT22;38420;53.150;6.370;2022-10-24T15:54:05;15.10;99.90
52509;DHT22;38420;53.150;6.370;2022-10-24T15:56:31;15.00;99.90
52509;DHT22;38420;53.150;6.370;2022-10-24T15:58:57;15.10;99.90
52509;DHT22;38420;53.150;6.370;2022-10-24T16:01:34;15.20;99.90
52509;DHT22;38420;53.150;6.370;2022-10-24T16:04:01;15.30;99.90
52509;DHT22;38420;53.150;6.370;2022-10-24T16:06:27;15.20;99.90
52509;DHT22;38420;53.150;6.370;2022-10-24T16:08:54;15.20;99.90
52509;DHT22;38420;53.150;6.370;2022-10-24T16:11:20;15.10;99.90
52509;DHT22;38420;53.150;6.370;2022-10-24T16:13:46;15.00;99.90
52509;DHT22;38420;53.150;6.370;2022-10-24T16:16:11;14.90;99.90
52509;DHT22;38420;53.150;6.370;2022-10-24T16:18:37;14.90;99.90
52509;DHT22;38420;53.150;6.370;2022-10-24T16:21:04;14.90;99.90
52509;DHT22;38420;53.150;6.370;2022-10-24T16:23:30;14.90;99.90
52509;DHT22;38420;53.150;6.370;2022-10-24T16:25:56;14.90;99.90
52509;DHT22;38420;53.150;6.370;2022-10-24T16:28:22;14.90;99.90
52509;DHT22;38420;53.150;6.370;2022-10-24T16:30:50;14.90;99.90
52509;DHT22;38420;53.150;6.370;2022-10-24T16:33:16;15.00;99.90
52509;DHT22;38420;53.150;6.370;2022-10-24T16:35:45;15.00;99.90
52509;DHT22;38420;53.150;6.370;2022-10-24T16:38:12;14.90;99.90
52509;DHT22;38420;53.150;6.370;2022-10-24T16:40:40;14.90;99.90
52509;DHT22;38420;53.150;6.370;2022-10-24T16:43:06;14.80;99.90
52509;DHT22;38420;53.150;6.370;2022-10-24T16:45:32;14.80;99.90
52509;DHT22;38420;53.150;6.370;2022-10-24T16:47:58;14.50;99.90
52509;DHT22;38420;53.150;6.370;2022-10-24T16:50:26;14.40;99.90
52509;DHT22;38420;53.150;6.370;2022-10-24T16:52:54;14.30;99.90
52509;DHT22;38420;53.150;6.370;2022-10-24T16:55:21;14.30;99.90
52509;DHT22;38420;53.150;6.370;2022-10-24T16:57:47;14.30;99.90
52509;DHT22;38420;53.150;6.370;2022-10-24T17:00:15;14.40;99.90
52509;DHT22;38420;53.150;6.370;2022-10-24T17:02:43;14.30;99.90
52509;DHT22;38420;53.150;6.370;2022-10-24T17:05:10;14.50;99.90
52509;DHT22;38420;53.150;6.370;2022-10-24T17:07:36;14.40;99.90
52509;DHT22;38420;53.150;6.370;2022-10-24T17:10:02;14.40;99.90
52509;DHT22;38420;53.150;6.370;2022-10-24T17:12:28;14.00;99.90
52509;DHT22;38420;53.150;6.370;2022-10-24T17:14:53;14.40;99.90
52509;DHT22;38420;53.150;6.370;2022-10-24T17:17:19;14.00;99.90
52509;DHT22;38420;53.150;6.370;2022-10-24T17:19:44;14.40;99.90
52509;DHT22;38420;53.150;6.370;2022-10-24T17:22:13;14.40;99.90
52509;DHT22;38420;53.150;6.370;2022-10-24T17:24:38;13.90;99.90
52509;DHT22;38420;53.150;6.370;2022-10-24T17:27:12;14.30;99.90
52509;DHT22;38420;53.150;6.370;2022-10-24T17:29:39;14.30;99.90
52509;DHT22;38420;53.150;6.370;2022-10-24T17:32:05;14.20;99.90
52509;DHT22;38420;53.150;6.370;2022-10-24T17:34:32;14.00;99.90
52509;DHT22;38420;53.150;6.370;2022-10-24T17:42:08;14.00;99.90
52509;DHT22;38420;53.150;6.370;2022-10-24T17:44:33;14.00;99.90
52509;DHT22;38420;53.150;6.370;2022-10-24T17:47:02;13.80;99.90
52509;DHT22;38420;53.150;6.370;2022-10-24T17:49:27;13.80;99.90
52509;DHT22;38420;53.150;6.370;2022-10-24T17:51:53;14.10;99.90
52509;DHT22;38420;53.150;6.370;2022-10-24T17:54:18;13.90;99.90
52509;DHT22;38420;53.150;6.370;2022-10-24T17:56:44;13.80;99.90
52509;DHT22;38420;53.150;6.370;2022-10-24T17:59:09;13.70;99.90
52509;DHT22;38420;53.150;6.370;2022-10-24T18:01:35;13.60;99.90